createdAt,value
2023-03-26T00:00:54.285Z,9.90
2023-03-26T00:03:24.379Z,10.19
2023-03-26T00:06:03.324Z,9.87
2023-03-26T00:08:31.504Z,10.17
2023-03-26T00:11:01.032Z,10.22
2023-03-26T00:13:29.258Z,10.26
2023-03-26T00:15:57.299Z,9.21
2023-03-26T00:18:30.577Z,8.90
2023-03-26T00:20:58.813Z,9.29
2023-03-26T00:23:26.939Z,8.78
2023-03-26T00:25:56.170Z,8.87
2023-03-26T00:28:24.874Z,8.77
2023-03-26T00:30:59.536Z,9.26
2023-03-26T00:33:29.425Z,9.22
2023-03-26T00:35:59.116Z,9.57
2023-03-26T00:38:28.553Z,9.45
2023-03-26T00:41:05.789Z,9.15
2023-03-26T00:43:35.456Z,9.55
2023-03-26T00:46:03.495Z,9.59
2023-03-26T00:48:44.532Z,10.04
2023-03-26T00:51:16.309Z,9.76
2023-03-26T00:53:45.311Z,9.88
2023-03-26T00:56:14.073Z,9.69
2023-03-26T00:58:42.378Z,9.73
2023-03-26T01:01:14.598Z,9.56
2023-03-26T01:03:57.145Z,9.54
2023-03-26T01:06:36.665Z,9.71
2023-03-26T01:09:13.326Z,9.63
2023-03-26T01:11:41.388Z,9.47
2023-03-26T01:14:12.297Z,9.82
2023-03-26T01:16:44.889Z,9.93
2023-03-26T01:19:20.627Z,10.34
2023-03-26T01:21:48.516Z,10.14
2023-03-26T01:24:17.798Z,9.67
2023-03-26T01:26:59.312Z,9.31
2023-03-26T01:29:34.293Z,9.42
2023-03-26T01:32:12.855Z,9.68
2023-03-26T01:34:52.640Z,9.66
2023-03-26T01:37:30.445Z,9.78
2023-03-26T01:40:07.269Z,9.89
2023-03-26T01:42:41.591Z,9.67
2023-03-26T01:45:14.500Z,9.72
2023-03-26T01:47:44.305Z,9.19
2023-03-26T01:50:12.179Z,9.29
2023-03-26T01:52:40.418Z,9.54
2023-03-26T01:55:11.747Z,9.50
2023-03-26T01:57:51.733Z,9.69
2023-03-26T02:00:26.429Z,9.70
2023-03-26T02:03:03.395Z,9.62
2023-03-26T02:05:35.166Z,9.48
2023-03-26T02:08:09.630Z,9.95
2023-03-26T02:10:44.043Z,9.55
2023-03-26T02:13:12.561Z,10.05
2023-03-26T02:15:40.561Z,10.30
2023-03-26T02:18:10.972Z,10.08
2023-03-26T02:20:38.835Z,9.55
2023-03-26T02:23:07.151Z,9.93
2023-03-26T02:25:36.737Z,9.89
2023-03-26T02:28:06.332Z,9.87
2023-03-26T02:30:34.562Z,9.66
2023-03-26T02:33:02.620Z,9.77
2023-03-26T02:35:40.185Z,9.66
2023-03-26T02:38:10.522Z,9.64
2023-03-26T02:40:38.420Z,9.65
2023-03-26T02:43:07.712Z,9.47
2023-03-26T02:45:36.687Z,8.70
2023-03-26T02:48:34.601Z,8.58
2023-03-26T02:51:11.775Z,8.57
2023-03-26T02:53:47.443Z,8.45
2023-03-26T02:56:38.172Z,8.86
2023-03-26T02:59:30.284Z,8.67
2023-03-26T03:02:19.374Z,8.40
2023-03-26T03:04:48.022Z,8.66
2023-03-26T03:07:15.973Z,8.83
2023-03-26T03:09:43.776Z,8.95
2023-03-26T03:12:41.045Z,9.41
2023-03-26T03:15:11.240Z,9.44
2023-03-26T03:17:39.105Z,9.56
2023-03-26T03:20:09.287Z,9.80
2023-03-26T03:22:39.208Z,9.72
2023-03-26T03:25:09.128Z,9.78
2023-03-26T03:27:39.339Z,9.84
2023-03-26T03:30:15.213Z,9.66
2023-03-26T03:32:45.919Z,9.59
2023-03-26T03:35:17.003Z,9.73
2023-03-26T03:37:49.954Z,9.92
2023-03-26T03:40:18.030Z,9.64
2023-03-26T03:42:46.345Z,9.29
2023-03-26T03:45:18.389Z,9.39
2023-03-26T03:48:07.569Z,9.63
2023-03-26T03:50:42.079Z,10.21
2023-03-26T03:53:22.369Z,10.78
2023-03-26T03:55:53.942Z,10.88
2023-03-26T03:58:27.959Z,10.47
2023-03-26T04:01:03.083Z,9.98
2023-03-26T04:03:55.272Z,9.93
2023-03-26T04:06:30.178Z,9.78
2023-03-26T04:08:58.275Z,9.79
2023-03-26T04:11:26.239Z,9.80
2023-03-26T04:14:16.864Z,9.93
2023-03-26T04:16:58.094Z,9.62
2023-03-26T04:19:27.437Z,9.54
2023-03-26T04:21:55.374Z,9.59
2023-03-26T04:24:24.557Z,9.85
2023-03-26T04:27:14.954Z,9.36
2023-03-26T04:29:45.282Z,9.67
2023-03-26T04:32:26.474Z,10.13
2023-03-26T04:34:55.581Z,9.97
2023-03-26T04:37:32.237Z,9.74
2023-03-26T04:40:23.984Z,9.70
2023-03-26T04:43:14.152Z,9.68
2023-03-26T04:46:02.884Z,9.54
2023-03-26T04:48:34.679Z,9.77
2023-03-26T04:51:02.526Z,9.84
2023-03-26T04:53:30.386Z,10.12
2023-03-26T04:56:34.349Z,10.36
2023-03-26T04:59:30.405Z,10.47
2023-03-26T05:02:00.291Z,10.47
2023-03-26T05:04:34.072Z,9.31
2023-03-26T05:07:03.012Z,9.01
2023-03-26T05:09:44.986Z,8.16
2023-03-26T05:12:17.403Z,8.44
2023-03-26T05:14:52.867Z,8.81
2023-03-26T05:17:41.286Z,9.03
2023-03-26T05:20:21.331Z,8.94
2023-03-26T05:22:51.218Z,9.33
2023-03-26T05:25:28.883Z,9.14
2023-03-26T05:27:57.600Z,8.94
2023-03-26T05:30:30.804Z,8.83
2023-03-26T05:33:04.282Z,9.21
2023-03-26T05:35:43.255Z,9.30
2023-03-26T05:38:11.060Z,9.16
2023-03-26T05:40:39.305Z,9.11
2023-03-26T05:43:08.504Z,9.06
2023-03-26T05:45:48.783Z,9.18
2023-03-26T05:48:22.711Z,9.65
2023-03-26T05:50:55.497Z,9.68
2023-03-26T05:53:25.227Z,10.11
2023-03-26T05:56:11.800Z,10.09
2023-03-26T05:58:58.228Z,10.28
2023-03-26T06:01:34.610Z,10.45
2023-03-26T06:04:25.559Z,10.09
2023-03-26T06:07:13.561Z,10.00
2023-03-26T06:09:45.375Z,10.72
2023-03-26T06:12:13.606Z,10.54
2023-03-26T06:14:43.093Z,10.80
2023-03-26T06:17:19.332Z,10.95
2023-03-26T06:20:09.280Z,10.73
2023-03-26T06:22:44.513Z,10.81
2023-03-26T06:25:21.491Z,10.47
2023-03-26T06:28:21.379Z,10.17
2023-03-26T06:31:09.431Z,10.46
2023-03-26T06:33:41.350Z,10.81
2023-03-26T06:36:10.761Z,11.30
2023-03-26T06:38:40.306Z,10.88
2023-03-26T06:41:09.536Z,10.60
2023-03-26T06:44:15.593Z,10.84
2023-03-26T06:47:01.835Z,10.47
2023-03-26T06:50:01.612Z,10.73
2023-03-26T06:52:54.766Z,11.22
2023-03-26T06:55:44.169Z,11.23
2023-03-26T06:58:31.237Z,11.41
2023-03-26T07:01:34.088Z,11.00
2023-03-26T07:04:20.389Z,11.44
2023-03-26T07:07:06.764Z,11.17
2023-03-26T07:09:53.063Z,11.25
2023-03-26T07:12:51.354Z,9.38
2023-03-26T07:15:45.582Z,10.02
2023-03-26T07:18:36.267Z,9.63
2023-03-26T07:21:06.686Z,9.99
2023-03-26T07:23:35.013Z,9.86
2023-03-26T07:26:31.742Z,10.30
2023-03-26T07:29:34.004Z,10.65
2023-03-26T07:32:26.241Z,11.30
2023-03-26T07:35:21.441Z,10.59
2023-03-26T07:38:23.824Z,9.97
2023-03-26T07:41:13.509Z,9.18
2023-03-26T07:44:35.712Z,9.48
2023-03-26T07:47:28.523Z,9.76
2023-03-26T07:50:18.770Z,9.69
2023-03-26T07:53:07.325Z,9.54
2023-03-26T07:55:58.994Z,9.81
2023-03-26T07:58:59.416Z,9.56
2023-03-26T08:02:00.353Z,9.60
2023-03-26T08:05:00.729Z,9.77
2023-03-26T08:08:14.438Z,10.23
2023-03-26T08:11:07.939Z,10.24
2023-03-26T08:13:59.240Z,10.40
2023-03-26T08:16:32.879Z,10.57
2023-03-26T08:19:10.856Z,10.57
2023-03-26T08:21:42.941Z,10.36
2023-03-26T08:24:19.991Z,9.98
2023-03-26T08:26:57.364Z,9.78
2023-03-26T08:29:41.361Z,9.66
2023-03-26T08:32:17.518Z,9.52
2023-03-26T08:34:50.237Z,9.21
2023-03-26T08:37:18.126Z,9.45
2023-03-26T08:39:46.508Z,9.34
2023-03-26T08:42:49.678Z,9.31
2023-03-26T08:45:43.015Z,9.17
2023-03-26T08:48:55.648Z,9.67
2023-03-26T08:52:03.962Z,9.39
2023-03-26T08:55:08.538Z,9.52
2023-03-26T08:58:00.416Z,9.52
2023-03-26T09:00:57.440Z,9.55
2023-03-26T09:03:48.722Z,10.20
2023-03-26T09:06:35.381Z,9.06
2023-03-26T09:10:02.958Z,9.50
2023-03-26T09:12:55.839Z,9.27
2023-03-26T09:15:44.267Z,10.05
2023-03-26T09:18:51.636Z,10.03
2023-03-26T09:21:47.417Z,10.26
2023-03-26T09:25:00.203Z,10.81
2023-03-26T09:27:40.782Z,10.98
2023-03-26T09:30:29.587Z,10.91
2023-03-26T09:33:34.885Z,11.15
2023-03-26T09:36:37.439Z,11.84
2023-03-26T09:39:11.310Z,12.08
2023-03-26T09:41:43.691Z,11.84
2023-03-26T09:44:51.792Z,11.57
2023-03-26T09:47:44.181Z,12.07
2023-03-26T09:50:41.300Z,11.17
2023-03-26T09:53:22.191Z,10.98
2023-03-26T09:56:04.276Z,10.32
2023-03-26T09:58:52.939Z,10.95
2023-03-26T10:01:33.292Z,11.30
2023-03-26T10:04:26.782Z,11.18
2023-03-26T10:07:02.748Z,11.37
2023-03-26T10:09:40.878Z,11.28
2023-03-26T10:12:20.811Z,10.76
2023-03-26T10:15:00.701Z,11.19
2023-03-26T10:17:44.172Z,10.72
2023-03-26T10:20:33.453Z,11.24
2023-03-26T10:23:15.847Z,11.90
2023-03-26T10:25:56.264Z,11.71
2023-03-26T10:28:42.311Z,11.61
2023-03-26T10:31:26.640Z,11.78
2023-03-26T10:34:06.763Z,11.55
2023-03-26T10:36:36.876Z,11.17
2023-03-26T10:39:37.368Z,11.55
2023-03-26T10:42:24.608Z,11.70
2023-03-26T10:45:11.392Z,11.64
2023-03-26T10:47:53.710Z,11.83
2023-03-26T10:50:37.871Z,11.89
2023-03-26T10:53:11.163Z,11.94
2023-03-26T10:55:40.972Z,11.49
2023-03-26T10:58:17.871Z,11.44
2023-03-26T11:00:51.800Z,11.81
2023-03-26T11:03:41.551Z,12.06
2023-03-26T11:06:20.929Z,11.99
2023-03-26T11:08:54.862Z,12.54
2023-03-26T11:11:29.887Z,11.99
2023-03-26T11:14:04.757Z,11.80
2023-03-26T11:16:45.754Z,12.58
2023-03-26T11:19:21.695Z,13.13
2023-03-26T11:21:58.539Z,12.06
2023-03-26T11:25:05.142Z,12.33
2023-03-26T11:27:47.467Z,12.09
2023-03-26T11:30:28.667Z,12.26
2023-03-26T11:33:00.508Z,12.52
2023-03-26T11:35:39.511Z,11.93
2023-03-26T11:38:19.517Z,11.74
2023-03-26T11:40:51.032Z,11.17
2023-03-26T11:43:38.908Z,11.42
2023-03-26T11:46:12.029Z,11.29
2023-03-26T11:48:44.215Z,12.00
2023-03-26T11:51:16.740Z,12.08
2023-03-26T11:53:46.769Z,12.60
2023-03-26T11:56:28.335Z,12.69
2023-03-26T11:59:01.927Z,12.53
2023-03-26T12:01:41.850Z,12.63
2023-03-26T12:04:14.469Z,11.89
2023-03-26T12:06:53.272Z,11.71
2023-03-26T12:09:22.474Z,11.98
2023-03-26T12:11:55.694Z,12.25
2023-03-26T12:14:27.321Z,12.43
2023-03-26T12:17:03.785Z,12.96
2023-03-26T12:19:40.429Z,13.04
2023-03-26T12:22:29.893Z,12.92
2023-03-26T12:25:16.805Z,13.18
2023-03-26T12:27:46.203Z,13.11
2023-03-26T12:30:21.791Z,12.89
2023-03-26T12:32:53.353Z,13.19
2023-03-26T12:35:27.153Z,13.88
2023-03-26T12:37:56.305Z,13.69
2023-03-26T12:40:31.653Z,13.30
2023-03-26T12:44:56.531Z,13.71
2023-03-26T12:47:56.414Z,13.63
2023-03-26T12:48:40.001Z,14.02
2023-03-26T12:51:23.749Z,14.12
2023-03-26T12:54:04.652Z,14.32
2023-03-26T12:56:44.035Z,14.33
2023-03-26T12:59:35.451Z,16.01
2023-03-26T13:02:21.726Z,15.82
2023-03-26T13:05:06.346Z,15.86
2023-03-26T13:07:52.132Z,14.36
2023-03-26T13:10:42.234Z,14.51
2023-03-26T13:13:29.552Z,14.18
2023-03-26T13:16:02.036Z,13.11
2023-03-26T13:18:45.059Z,13.27
2023-03-26T13:21:20.480Z,12.87
2023-03-26T13:23:57.154Z,11.49
2023-03-26T13:26:41.060Z,10.56
2023-03-26T13:29:18.441Z,10.63
2023-03-26T13:31:54.559Z,11.30
2023-03-26T13:34:31.201Z,12.33
2023-03-26T13:37:06.925Z,12.70
2023-03-26T13:39:46.932Z,13.60
2023-03-26T13:42:33.575Z,12.96
2023-03-26T13:45:15.532Z,13.25
2023-03-26T13:47:48.481Z,13.07
2023-03-26T13:50:23.318Z,13.63
2023-03-26T13:52:55.877Z,13.69
2023-03-26T13:55:29.367Z,13.48
2023-03-26T13:58:04.898Z,13.69
2023-03-26T14:00:54.454Z,13.21
2023-03-26T14:03:30.995Z,13.01
2023-03-26T14:06:04.906Z,12.87
2023-03-26T14:08:38.449Z,12.72
2023-03-26T14:11:11.070Z,12.49
2023-03-26T14:13:47.299Z,12.42
2023-03-26T14:16:19.639Z,12.76
2023-03-26T14:18:53.523Z,12.86
2023-03-26T14:21:45.008Z,12.49
2023-03-26T14:24:32.313Z,12.72
2023-03-26T14:27:17.820Z,12.72
2023-03-26T14:29:58.878Z,12.61
2023-03-26T14:32:41.836Z,12.76
2023-03-26T14:35:26.032Z,12.26
2023-03-26T14:38:28.564Z,12.33
2023-03-26T14:41:10.148Z,12.38
2023-03-26T14:44:00.521Z,12.10
2023-03-26T14:46:40.001Z,12.00
2023-03-26T14:49:30.765Z,12.03
2023-03-26T14:52:03.058Z,11.64
2023-03-26T14:54:34.442Z,9.82
2023-03-26T14:57:38.288Z,7.97
2023-03-26T15:01:05.545Z,7.93
2023-03-26T15:04:23.096Z,7.75
2023-03-26T15:07:24.396Z,7.55
2023-03-26T15:10:22.517Z,7.67
2023-03-26T15:13:06.247Z,7.73
2023-03-26T15:16:07.609Z,7.61
2023-03-26T15:19:21.213Z,7.17
2023-03-26T15:22:24.542Z,6.93
2023-03-26T15:25:27.577Z,6.96
2023-03-26T15:28:19.166Z,7.06
2023-03-26T15:31:14.097Z,7.25
2023-03-26T15:34:12.074Z,7.40
2023-03-26T15:37:01.592Z,7.60
2023-03-26T15:39:59.245Z,7.49
2023-03-26T15:42:38.212Z,7.39
2023-03-26T15:45:27.637Z,7.46
2023-03-26T15:48:15.797Z,7.50
2023-03-26T15:50:55.757Z,7.75
2023-03-26T15:53:35.495Z,7.60
2023-03-26T15:56:17.697Z,7.97
2023-03-26T15:58:52.028Z,8.09
2023-03-26T16:01:33.990Z,7.75
2023-03-26T16:04:19.041Z,7.69
2023-03-26T16:06:58.450Z,7.39
2023-03-26T16:09:42.089Z,7.67
2023-03-26T16:12:35.785Z,7.73
2023-03-26T16:15:32.201Z,7.57
2023-03-26T16:18:33.041Z,7.64
2023-03-26T16:21:39.557Z,7.92
2023-03-26T16:24:20.532Z,7.58
2023-03-26T16:27:08.040Z,7.67
2023-03-26T16:30:09.391Z,7.64
2023-03-26T16:32:42.334Z,7.72
2023-03-26T16:35:56.912Z,7.73
2023-03-26T16:38:27.290Z,7.85
2023-03-26T16:41:03.933Z,7.69
2023-03-26T16:43:44.979Z,7.84
2023-03-26T16:46:27.244Z,7.77
2023-03-26T16:49:01.588Z,7.86
2023-03-26T16:51:47.376Z,7.82
2023-03-26T16:54:23.238Z,8.10
2023-03-26T16:56:58.369Z,7.89
2023-03-26T17:00:05.717Z,7.86
2023-03-26T17:02:49.716Z,7.78
2023-03-26T17:05:21.129Z,7.93
2023-03-26T17:07:59.544Z,7.91
2023-03-26T17:10:34.732Z,7.78
2023-03-26T17:13:07.857Z,7.86
2023-03-26T17:15:45.304Z,7.78
2023-03-26T17:18:36.683Z,7.89
2023-03-26T17:21:13.390Z,8.09
2023-03-26T17:24:04.842Z,8.00
2023-03-26T17:26:46.483Z,8.03
2023-03-26T17:29:27.160Z,8.00
2023-03-26T17:32:01.522Z,8.00
2023-03-26T17:34:55.814Z,8.15
2023-03-26T17:37:43.339Z,8.29
2023-03-26T17:40:51.581Z,8.14
2023-03-26T17:43:50.215Z,8.05
2023-03-26T17:46:34.000Z,7.95
2023-03-26T17:49:08.136Z,8.15
2023-03-26T17:51:47.467Z,7.83
2023-03-26T17:54:21.672Z,7.80
2023-03-26T17:56:51.249Z,7.91
2023-03-26T17:59:23.471Z,8.02
2023-03-26T18:01:55.792Z,8.31
2023-03-26T18:04:30.779Z,7.89
2023-03-26T18:07:18.058Z,8.08
2023-03-26T18:10:06.592Z,8.05
2023-03-26T18:12:57.016Z,8.00
2023-03-26T18:15:46.788Z,8.02
2023-03-26T18:18:19.813Z,8.01
2023-03-26T18:20:49.337Z,7.80
2023-03-26T18:23:26.303Z,7.78
2023-03-26T18:25:58.680Z,7.84
2023-03-26T18:28:32.508Z,7.75
2023-03-26T18:31:09.966Z,7.80
2023-03-26T18:33:49.038Z,7.73
2023-03-26T18:36:18.537Z,7.74
2023-03-26T18:38:48.863Z,7.71
2023-03-26T18:41:24.686Z,7.77
2023-03-26T18:43:52.448Z,7.78
2023-03-26T18:46:20.810Z,7.66
2023-03-26T18:48:48.642Z,7.63
2023-03-26T18:51:22.833Z,7.73
2023-03-26T18:53:54.698Z,7.72
2023-03-26T18:56:31.330Z,7.54
2023-03-26T18:59:05.585Z,7.55
2023-03-26T19:01:36.558Z,7.54
2023-03-26T19:04:07.965Z,7.73
2023-03-26T19:06:41.038Z,7.47
2023-03-26T19:09:28.172Z,7.56
2023-03-26T19:12:05.297Z,7.55
2023-03-26T19:14:36.619Z,7.31
2023-03-26T19:17:07.363Z,7.20
2023-03-26T19:19:38.186Z,7.33
2023-03-26T19:22:06.991Z,7.25
2023-03-26T19:24:39.315Z,7.15
2023-03-26T19:27:07.354Z,7.16
2023-03-26T19:29:36.880Z,7.24
2023-03-26T19:32:06.777Z,7.15
2023-03-26T19:34:39.327Z,7.08
2023-03-26T19:37:19.397Z,7.08
2023-03-26T19:39:51.116Z,6.92
2023-03-26T19:42:23.313Z,7.07
2023-03-26T19:44:52.090Z,6.98
2023-03-26T19:47:26.783Z,6.92
2023-03-26T19:50:01.834Z,6.75
2023-03-26T19:52:34.763Z,6.86
2023-03-26T19:55:16.593Z,6.73
2023-03-26T19:57:45.149Z,6.67
2023-03-26T20:00:14.693Z,6.55
2023-03-26T20:02:45.850Z,6.72
2023-03-26T20:05:19.145Z,6.53
2023-03-26T20:07:47.446Z,6.49
2023-03-26T20:10:17.219Z,6.52
2023-03-26T20:12:45.471Z,6.53
2023-03-26T20:15:19.620Z,6.62
2023-03-26T20:17:50.075Z,6.52
2023-03-26T20:20:18.326Z,6.71
2023-03-26T20:22:47.152Z,6.58
2023-03-26T20:25:20.456Z,6.77
2023-03-26T20:27:48.835Z,6.88
2023-03-26T20:30:22.289Z,6.80
2023-03-26T20:33:11.879Z,6.88
2023-03-26T20:35:40.912Z,6.95
2023-03-26T20:38:09.641Z,6.80
2023-03-26T20:40:39.078Z,6.70
2023-03-26T20:43:10.781Z,6.88
2023-03-26T20:45:38.717Z,6.85
2023-03-26T20:48:07.085Z,6.78
2023-03-26T20:50:35.966Z,6.73
2023-03-26T20:53:06.404Z,6.59
2023-03-26T20:55:35.554Z,6.66
2023-03-26T20:58:04.686Z,6.53
2023-03-26T21:00:32.469Z,6.50
2023-03-26T21:03:00.222Z,6.51
2023-03-26T21:05:30.068Z,6.41
2023-03-26T21:07:59.599Z,6.57
2023-03-26T21:10:29.671Z,6.54
2023-03-26T21:13:00.696Z,6.44
2023-03-26T21:15:30.515Z,6.49
2023-03-26T21:17:59.018Z,6.59
2023-03-26T21:20:28.880Z,6.63
2023-03-26T21:23:04.032Z,6.54
2023-03-26T21:25:40.169Z,6.48
2023-03-26T21:28:24.054Z,6.63
2023-03-26T21:30:56.899Z,6.61
2023-03-26T21:33:25.327Z,6.58
2023-03-26T21:35:53.716Z,6.74
2023-03-26T21:38:22.460Z,6.61
2023-03-26T21:40:58.329Z,6.56
2023-03-26T21:43:26.959Z,6.71
2023-03-26T21:45:57.387Z,6.50
2023-03-26T21:48:25.889Z,6.42
2023-03-26T21:50:54.362Z,6.57
2023-03-26T21:53:24.178Z,6.63
2023-03-26T21:56:01.615Z,6.58
2023-03-26T21:58:47.072Z,6.53
2023-03-26T22:01:26.701Z,6.45
2023-03-26T22:04:03.363Z,6.72
2023-03-26T22:06:37.196Z,6.54
2023-03-26T22:09:05.767Z,6.51
2023-03-26T22:11:33.559Z,6.60
2023-03-26T22:14:01.567Z,6.57
2023-03-26T22:16:30.758Z,6.58
2023-03-26T22:18:58.540Z,6.47
2023-03-26T22:21:26.414Z,6.49
2023-03-26T22:23:54.269Z,6.56
2023-03-26T22:26:24.134Z,6.61
2023-03-26T22:28:53.127Z,6.55
2023-03-26T22:31:21.160Z,6.65
2023-03-26T22:33:50.239Z,6.65
2023-03-26T22:36:22.762Z,6.64
2023-03-26T22:38:54.117Z,6.80
2023-03-26T22:41:22.436Z,6.86
2023-03-26T22:43:52.020Z,7.25
2023-03-26T22:46:20.315Z,7.66
2023-03-26T22:48:49.317Z,7.26
2023-03-26T22:51:19.183Z,6.76
2023-03-26T22:53:46.984Z,6.85
2023-03-26T22:56:15.456Z,6.75
2023-03-26T22:58:43.162Z,6.67
2023-03-26T23:01:17.757Z,6.60
2023-03-26T23:03:45.706Z,6.72
2023-03-26T23:06:14.234Z,7.17
2023-03-26T23:08:43.594Z,7.58
2023-03-26T23:11:12.613Z,7.16
2023-03-26T23:13:40.876Z,6.94
2023-03-26T23:16:10.064Z,7.11
2023-03-26T23:18:38.800Z,6.68
2023-03-26T23:21:11.793Z,6.72
2023-03-26T23:23:41.284Z,7.10
2023-03-26T23:26:10.706Z,6.80
2023-03-26T23:28:39.151Z,6.71
2023-03-26T23:31:10.026Z,6.89
2023-03-26T23:33:45.519Z,7.12
2023-03-26T23:36:14.952Z,6.98
2023-03-26T23:38:44.091Z,7.08
2023-03-26T23:41:14.960Z,7.48
2023-03-26T23:43:54.683Z,7.22
2023-03-26T23:46:25.146Z,6.81
2023-03-26T23:48:53.382Z,6.59
2023-03-26T23:51:22.528Z,7.08
2023-03-26T23:53:50.503Z,7.14
2023-03-26T23:56:20.138Z,7.59
2023-03-26T23:58:48.842Z,7.39
